Windsorville, Connecticut
Current Conditions -  °F | °C
As of 5:51 PM on Tuesday 21 Oct 2014 (Local Time) from KBDL Reporting Station
Broken Clouds Broken Clouds  
Wind Chill: 60°   Ceiling: 7000
Heat Index: 60°   Visibility: 10mi
Dew Point: 49°   Wind: 8mph
Humidity: 67%   Direction: 360°N
Pressure: 29.88"   Gusts: NA
Location:  41.9042°N, 72.5445°W
Report Text: KBDL 212151Z 36007KT 10SM BKN070 BKN150 BKN250 16/09 A2988 RMK AO2 SLP120 T01560094
Loading
Personal Weather Stations






























Interactive Weather Map
Tropical Storm Tracking
New forecast layout! Learn more

10-Day Weather Forecast

Advertisements
Track Severe Weather on mobile